Terminal Aerodrome Forecast
Issued by NWS

Home | Current Version | Previous Version | Text Only | Print | Product List | Glossary Off
Versions: 1 2 3 4 5 6 7 8 9 10 11 12

216
FTUS43 KICT 220520
TAFSLN
TAF
KSLN 220520Z 2206/2306 36007KT P6SM SKC
     FM221200 20011KT P6SM SCT250
     FM221500 18010KT P6SM SCT250=

USA.gov is the U.S. government's official web portal to all federal, state and local government web resources and services.